Time;durP1;ratioP1;P1;durP2;ratioP2;P2;SDS_P1;SDS_P2;PMS_P1;PMS_P2;Temp;Humidity;BMP_temperature;BMP_pressure;BME280_temperature;BME280_humidity;BME280_pressure;Samples;Min_cycle;Max_cycle;Signal;HPM_P1;HPM_P2
2023/10/30 00:02:09;;;;;;;11.32;10.82;;;;;;;;;;5073881;28;20024;-62
2023/10/30 00:04:35;;;;;;;10.70;10.20;;;;;;;;;;5063335;28;20036;-62
2023/10/30 00:07:00;;;;;;;11.07;10.57;;;;;;;;;;5066618;28;20052;-62
2023/10/30 00:09:25;;;;;;;11.18;10.68;;;;;;;;;;5070427;28;20068;-62
2023/10/30 00:11:51;;;;;;;11.05;10.55;;;;;;;;;;5071678;28;20449;-63
2023/10/30 00:14:16;;;;;;;10.80;10.30;;;;;;;;;;5064622;28;20045;-62
2023/10/30 00:16:42;;;;;;;11.40;10.90;;;;;;;;;;5062615;28;20104;-62
2023/10/30 00:19:07;;;;;;;12.10;11.50;;;;;;;;;;5068544;28;20029;-62
2023/10/30 00:21:33;;;;;;;11.23;10.73;;;;;;;;;;5070797;28;20031;-62
2023/10/30 00:24:01;;;;;;;11.23;10.73;;;;;;;;;;5072212;28;20024;-63
2023/10/30 00:26:26;;;;;;;11.05;10.55;;;;;;;;;;5071388;28;20012;-62
2023/10/30 00:28:52;;;;;;;11.02;10.52;;;;;;;;;;5073765;28;20432;-62
2023/10/30 00:31:17;;;;;;;10.88;10.38;;;;;;;;;;5070045;28;20404;-63
2023/10/30 00:33:43;;;;;;;10.95;10.45;;;;;;;;;;5070118;28;20055;-63
2023/10/30 00:36:08;;;;;;;11.73;11.15;;;;;;;;;;5068268;28;20033;-62
2023/10/30 00:38:33;;;;;;;11.13;10.63;;;;;;;;;;5067278;28;20052;-63
2023/10/30 00:40:59;;;;;;;10.93;10.43;;;;;;;;;;5068559;28;20024;-63
2023/10/30 00:43:25;;;;;;;10.80;10.30;;;;;;;;;;5072111;28;20031;-63
2023/10/30 00:45:51;;;;;;;11.20;10.70;;;;;;;;;;5070811;28;20043;-62
2023/10/30 00:48:17;;;;;;;11.55;11.05;;;;;;;;;;5071686;28;20037;-61
2023/10/30 00:50:42;;;;;;;10.70;10.20;;;;;;;;;;5074756;28;20028;-61
2023/10/30 00:53:07;;;;;;;10.95;10.45;;;;;;;;;;5074055;28;20551;-61
2023/10/30 00:55:35;;;;;;;11.40;10.90;;;;;;;;;;5070279;28;20021;-63
2023/10/30 00:58:01;;;;;;;11.13;10.63;;;;;;;;;;5063649;28;20102;-63
2023/10/30 01:00:26;;;;;;;11.30;10.80;;;;;;;;;;5078725;28;20473;-63
2023/10/30 01:02:51;;;;;;;10.85;10.35;;;;;;;;;;5065206;28;20481;-63
2023/10/30 01:05:16;;;;;;;10.98;10.48;;;;;;;;;;5073591;28;20508;-63
2023/10/30 01:07:42;;;;;;;10.85;10.35;;;;;;;;;;5063389;28;20017;-62
2023/10/30 01:10:07;;;;;;;11.07;10.57;;;;;;;;;;5087444;28;21268;-62
2023/10/30 01:12:32;;;;;;;11.40;10.90;;;;;;;;;;5073781;28;20012;-62
2023/10/30 01:14:58;;;;;;;11.20;10.70;;;;;;;;;;5067836;28;20071;-62
2023/10/30 01:17:23;;;;;;;10.70;10.20;;;;;;;;;;5071168;28;20013;-62
2023/10/30 01:19:48;;;;;;;10.70;10.20;;;;;;;;;;5069761;28;20448;-62
2023/10/30 01:22:14;;;;;;;11.10;10.60;;;;;;;;;;5070941;28;20035;-60
2023/10/30 01:24:39;;;;;;;11.40;10.90;;;;;;;;;;5075935;28;20059;-63
2023/10/30 01:27:04;;;;;;;10.75;10.25;;;;;;;;;;5079039;28;20020;-62
2023/10/30 01:29:30;;;;;;;10.73;10.23;;;;;;;;;;5073306;28;20035;-62
2023/10/30 01:31:55;;;;;;;10.70;10.20;;;;;;;;;;5070111;28;20139;-63
2023/10/30 01:34:21;;;;;;;11.20;10.70;;;;;;;;;;5068350;28;20013;-62
2023/10/30 01:36:46;;;;;;;11.27;10.77;;;;;;;;;;5070999;28;20020;-62
2023/10/30 01:39:11;;;;;;;11.57;11.05;;;;;;;;;;5076818;28;20016;-62
2023/10/30 01:41:37;;;;;;;11.15;10.65;;;;;;;;;;5070982;28;20044;-63
2023/10/30 01:44:03;;;;;;;10.70;10.20;;;;;;;;;;5065538;28;20024;-63
2023/10/30 01:46:29;;;;;;;10.73;10.23;;;;;;;;;;5072724;28;20020;-63
2023/10/30 01:48:54;;;;;;;11.00;10.50;;;;;;;;;;5067739;28;20477;-62
2023/10/30 01:51:20;;;;;;;11.25;10.75;;;;;;;;;;5075789;28;20388;-62
2023/10/30 01:53:47;;;;;;;11.00;10.50;;;;;;;;;;5069485;28;20028;-62
2023/10/30 01:56:13;;;;;;;10.85;10.35;;;;;;;;;;5065518;28;20470;-60
2023/10/30 01:58:39;;;;;;;11.43;10.93;;;;;;;;;;5071628;28;20035;-62
2023/10/30 02:01:05;;;;;;;11.40;10.90;;;;;;;;;;5077234;28;20099;-63
2023/10/30 02:03:30;;;;;;;11.20;10.70;;;;;;;;;;5056375;28;20075;-63
2023/10/30 02:05:55;;;;;;;10.93;10.43;;;;;;;;;;5072263;28;20044;-62
2023/10/30 02:08:21;;;;;;;11.00;10.50;;;;;;;;;;5069184;28;20772;-62
2023/10/30 02:10:47;;;;;;;11.45;10.95;;;;;;;;;;5074878;28;20036;-62
2023/10/30 02:13:12;;;;;;;10.90;10.40;;;;;;;;;;5075626;28;20044;-62
2023/10/30 02:15:37;;;;;;;11.13;10.63;;;;;;;;;;5071326;28;20028;-62
2023/10/30 02:18:03;;;;;;;11.20;10.70;;;;;;;;;;5064098;28;20021;-62
2023/10/30 02:20:28;;;;;;;11.13;10.63;;;;;;;;;;5070688;28;20073;-62
2023/10/30 02:22:53;;;;;;;10.93;10.43;;;;;;;;;;5061595;28;20029;-63
2023/10/30 02:25:19;;;;;;;10.75;10.25;;;;;;;;;;5071896;28;20469;-62
2023/10/30 02:27:45;;;;;;;11.02;10.52;;;;;;;;;;5069230;28;20098;-62
2023/10/30 02:30:11;;;;;;;11.05;10.55;;;;;;;;;;5074214;28;20443;-62
2023/10/30 02:32:44;;;;;;;10.60;10.10;;;;;;;;;;5066989;28;20024;-62
2023/10/30 02:35:19;;;;;;;10.95;10.45;;;;;;;;;;5071980;28;20047;-62
2023/10/30 02:37:44;;;;;;;11.68;11.07;;;;;;;;;;5066068;28;20017;-63
2023/10/30 02:40:10;;;;;;;10.80;10.30;;;;;;;;;;5069751;28;20026;-62
2023/10/30 02:42:36;;;;;;;10.30;9.80;;;;;;;;;;5070367;28;20055;-62
2023/10/30 02:45:03;;;;;;;10.80;10.30;;;;;;;;;;5059806;28;20103;-62
2023/10/30 02:47:29;;;;;;;10.75;10.25;;;;;;;;;;5079073;28;20032;-62
2023/10/30 02:49:54;;;;;;;10.90;10.40;;;;;;;;;;5074288;28;20381;-63
2023/10/30 02:52:20;;;;;;;11.38;10.88;;;;;;;;;;5070733;28;20426;-63
2023/10/30 02:54:45;;;;;;;10.93;10.43;;;;;;;;;;5069269;28;20035;-63
2023/10/30 02:57:10;;;;;;;10.70;10.20;;;;;;;;;;5067898;28;20048;-63
2023/10/30 02:59:36;;;;;;;10.70;10.20;;;;;;;;;;5066993;28;20055;-63
2023/10/30 03:02:02;;;;;;;11.00;10.50;;;;;;;;;;5072725;28;20103;-62
2023/10/30 03:04:28;;;;;;;10.98;10.48;;;;;;;;;;5060248;28;20024;-63
2023/10/30 03:06:53;;;;;;;10.60;10.10;;;;;;;;;;5073161;28;20027;-61
2023/10/30 03:09:19;;;;;;;10.90;10.40;;;;;;;;;;5058532;28;20054;-63
2023/10/30 03:11:44;;;;;;;10.55;10.05;;;;;;;;;;5074011;28;20051;-62
2023/10/30 03:14:10;;;;;;;10.52;10.02;;;;;;;;;;5065704;28;20424;-62
2023/10/30 03:16:35;;;;;;;11.00;10.50;;;;;;;;;;5072823;28;20028;-63
2023/10/30 03:19:00;;;;;;;10.52;10.02;;;;;;;;;;5068937;28;20016;-63
2023/10/30 03:21:25;;;;;;;10.52;10.02;;;;;;;;;;5068401;28;20496;-62
2023/10/30 03:23:51;;;;;;;10.13;9.70;;;;;;;;;;5068520;28;20025;-63
2023/10/30 03:26:16;;;;;;;10.80;10.30;;;;;;;;;;5070837;28;20020;-63
2023/10/30 03:28:42;;;;;;;10.95;10.45;;;;;;;;;;5066538;28;20025;-63
2023/10/30 03:31:09;;;;;;;10.90;10.40;;;;;;;;;;5071026;28;20016;-62
2023/10/30 03:33:34;;;;;;;10.90;10.40;;;;;;;;;;5070585;28;20063;-64
2023/10/30 03:36:01;;;;;;;10.50;10.00;;;;;;;;;;5069752;28;20483;-62
2023/10/30 03:38:26;;;;;;;10.90;10.40;;;;;;;;;;5065208;28;20378;-62
2023/10/30 03:40:53;;;;;;;11.32;10.82;;;;;;;;;;5057099;28;20013;-62
2023/10/30 03:43:18;;;;;;;11.05;10.55;;;;;;;;;;5064165;28;20044;-63
2023/10/30 03:45:44;;;;;;;10.40;9.90;;;;;;;;;;5056315;28;20449;-62
2023/10/30 03:48:09;;;;;;;10.70;10.20;;;;;;;;;;5057039;28;20478;-62
2023/10/30 03:50:35;;;;;;;10.77;10.27;;;;;;;;;;5067596;28;20481;-62
2023/10/30 03:53:00;;;;;;;10.98;10.48;;;;;;;;;;5062708;28;20051;-63
2023/10/30 03:55:25;;;;;;;10.90;10.40;;;;;;;;;;5075141;28;20012;-63
2023/10/30 03:57:51;;;;;;;10.55;10.05;;;;;;;;;;5065770;28;20020;-63
2023/10/30 04:00:16;;;;;;;10.95;10.45;;;;;;;;;;5073249;28;20028;-63
2023/10/30 04:02:41;;;;;;;10.45;9.95;;;;;;;;;;5072322;28;20111;-63
2023/10/30 04:05:07;;;;;;;10.70;10.20;;;;;;;;;;5068737;28;20472;-62
2023/10/30 04:07:32;;;;;;;11.00;10.50;;;;;;;;;;5063592;28;20389;-63
2023/10/30 04:09:58;;;;;;;10.73;10.23;;;;;;;;;;5063386;28;20040;-62
2023/10/30 04:12:24;;;;;;;10.40;9.90;;;;;;;;;;5062886;28;20385;-62
2023/10/30 04:14:51;;;;;;;10.48;9.98;;;;;;;;;;5066891;28;20051;-63
2023/10/30 04:17:16;;;;;;;10.50;10.00;;;;;;;;;;5060908;28;20031;-63
2023/10/30 04:19:41;;;;;;;11.07;10.57;;;;;;;;;;5078234;28;20095;-62
2023/10/30 04:22:07;;;;;;;10.77;10.27;;;;;;;;;;5059684;28;20124;-62
2023/10/30 04:24:32;;;;;;;10.40;9.90;;;;;;;;;;5072202;28;20523;-62
2023/10/30 04:26:57;;;;;;;10.70;10.20;;;;;;;;;;5074306;28;20029;-62
2023/10/30 04:29:23;;;;;;;10.73;10.23;;;;;;;;;;5072357;28;20032;-61
2023/10/30 04:31:48;;;;;;;11.07;10.57;;;;;;;;;;5068270;28;20504;-62
2023/10/30 04:34:13;;;;;;;11.00;10.50;;;;;;;;;;5073510;28;20012;-62
2023/10/30 04:36:38;;;;;;;11.38;10.88;;;;;;;;;;5073861;28;20016;-62
2023/10/30 04:39:08;;;;;;;10.82;10.32;;;;;;;;;;5064505;28;20017;-63
2023/10/30 04:41:34;;;;;;;10.35;9.85;;;;;;;;;;5077735;28;20017;-61
2023/10/30 04:43:59;;;;;;;10.60;10.10;;;;;;;;;;5073510;28;20392;-62
2023/10/30 04:46:24;;;;;;;10.88;10.38;;;;;;;;;;5072411;28;20032;-63
2023/10/30 04:48:49;;;;;;;10.45;9.95;;;;;;;;;;5073907;28;20027;-63
2023/10/30 04:51:15;;;;;;;11.13;10.63;;;;;;;;;;5069028;28;20107;-63
2023/10/30 04:53:40;;;;;;;10.70;10.20;;;;;;;;;;5072786;28;20023;-62
2023/10/30 04:56:07;;;;;;;11.20;10.70;;;;;;;;;;5071695;28;20021;-63
2023/10/30 04:58:33;;;;;;;11.27;10.77;;;;;;;;;;5066665;28;20060;-62
2023/10/30 05:00:59;;;;;;;11.10;10.60;;;;;;;;;;5073864;28;20477;-64
2023/10/30 05:03:24;;;;;;;10.60;10.10;;;;;;;;;;5066902;28;20492;-63
2023/10/30 05:05:49;;;;;;;11.13;10.63;;;;;;;;;;5072620;28;20038;-62
2023/10/30 05:08:17;;;;;;;11.68;11.07;;;;;;;;;;5075848;28;20055;-63
2023/10/30 05:10:42;;;;;;;11.55;10.95;;;;;;;;;;5075397;28;20384;-63
2023/10/30 05:13:08;;;;;;;10.85;10.35;;;;;;;;;;5072441;28;20036;-63
2023/10/30 05:15:33;;;;;;;10.80;10.30;;;;;;;;;;5071717;28;20461;-64
2023/10/30 05:17:58;;;;;;;10.15;9.68;;;;;;;;;;5071847;28;20032;-63
2023/10/30 05:20:24;;;;;;;10.60;10.10;;;;;;;;;;5071262;28;20027;-63
2023/10/30 05:22:49;;;;;;;10.73;10.23;;;;;;;;;;5072680;28;20078;-62
2023/10/30 05:25:14;;;;;;;10.90;10.40;;;;;;;;;;5069034;28;20016;-62
2023/10/30 05:27:40;;;;;;;10.98;10.48;;;;;;;;;;5065917;28;20029;-63
2023/10/30 05:30:05;;;;;;;10.57;10.07;;;;;;;;;;5073142;28;20032;-64
2023/10/30 05:32:31;;;;;;;10.82;10.32;;;;;;;;;;5076627;28;20382;-63
2023/10/30 05:34:56;;;;;;;11.07;10.57;;;;;;;;;;5068146;28;20013;-63
2023/10/30 05:37:21;;;;;;;12.15;11.55;;;;;;;;;;5070532;28;20088;-64
2023/10/30 05:39:48;;;;;;;11.35;10.85;;;;;;;;;;5073159;28;20604;-63
2023/10/30 05:42:14;;;;;;;11.20;10.70;;;;;;;;;;5070105;28;20371;-63
2023/10/30 05:44:39;;;;;;;11.27;10.77;;;;;;;;;;5065436;28;20016;-64
2023/10/30 05:47:05;;;;;;;11.55;11.05;;;;;;;;;;5072944;28;20029;-63
2023/10/30 05:49:30;;;;;;;11.70;11.20;;;;;;;;;;5079929;28;20020;-63
2023/10/30 05:51:55;;;;;;;12.52;11.93;;;;;;;;;;5073125;28;20028;-63
2023/10/30 05:54:22;;;;;;;11.70;11.20;;;;;;;;;;5074228;28;20016;-63
2023/10/30 05:56:47;;;;;;;11.80;11.30;;;;;;;;;;5075874;28;20103;-63
2023/10/30 05:59:12;;;;;;;11.55;11.05;;;;;;;;;;5066360;28;20109;-63
2023/10/30 06:01:38;;;;;;;11.55;11.05;;;;;;;;;;5072338;28;20016;-64
2023/10/30 06:04:04;;;;;;;11.38;10.88;;;;;;;;;;5064403;28;20047;-64
2023/10/30 06:06:29;;;;;;;11.48;10.98;;;;;;;;;;5072071;28;20036;-63
2023/10/30 06:08:55;;;;;;;11.90;11.40;;;;;;;;;;5076229;28;20051;-63
2023/10/30 06:11:20;;;;;;;11.65;11.15;;;;;;;;;;5078829;28;20025;-63
2023/10/30 06:13:45;;;;;;;11.85;11.35;;;;;;;;;;5073537;28;20068;-64
2023/10/30 06:16:20;;;;;;;12.00;11.50;;;;;;;;;;5067363;28;20021;-63
2023/10/30 06:18:45;;;;;;;11.65;11.15;;;;;;;;;;5073155;28;20465;-63
2023/10/30 06:21:17;;;;;;;11.95;11.45;;;;;;;;;;5065418;28;20032;-65
2023/10/30 06:23:42;;;;;;;12.18;11.68;;;;;;;;;;5071017;28;20111;-64
2023/10/30 06:26:11;;;;;;;11.98;11.48;;;;;;;;;;5072221;28;20104;-64
2023/10/30 06:28:37;;;;;;;11.50;11.00;;;;;;;;;;5070539;28;20028;-64
2023/10/30 06:31:03;;;;;;;11.57;11.07;;;;;;;;;;5066766;28;20024;-64
2023/10/30 06:33:28;;;;;;;12.13;11.63;;;;;;;;;;5066553;28;20020;-64
2023/10/30 06:35:58;;;;;;;11.85;11.35;;;;;;;;;;5063481;28;20017;-63
2023/10/30 06:38:24;;;;;;;12.00;11.50;;;;;;;;;;5058759;28;20031;-64
2023/10/30 06:40:49;;;;;;;11.85;11.35;;;;;;;;;;5064218;28;21204;-63
2023/10/30 06:43:14;;;;;;;12.38;11.85;;;;;;;;;;5069486;28;20103;-63
2023/10/30 06:45:40;;;;;;;11.88;11.38;;;;;;;;;;5069448;28;20058;-64
2023/10/30 06:48:05;;;;;;;12.18;11.68;;;;;;;;;;5069821;28;20016;-63
2023/10/30 06:50:30;;;;;;;12.25;11.75;;;;;;;;;;5068839;28;20028;-64
2023/10/30 06:52:57;;;;;;;12.05;11.55;;;;;;;;;;5067233;28;20020;-62
2023/10/30 06:55:22;;;;;;;11.88;11.38;;;;;;;;;;5067973;28;20035;-64
2023/10/30 06:57:47;;;;;;;11.90;11.40;;;;;;;;;;5070270;28;20024;-63
2023/10/30 07:00:13;;;;;;;11.95;11.45;;;;;;;;;;5064418;28;20340;-64
2023/10/30 07:02:40;;;;;;;12.50;11.90;;;;;;;;;;5069817;28;20020;-64
2023/10/30 07:05:06;;;;;;;12.02;11.52;;;;;;;;;;5070065;28;20027;-62
2023/10/30 07:07:31;;;;;;;12.05;11.55;;;;;;;;;;5073986;28;20111;-64
2023/10/30 07:09:57;;;;;;;12.10;11.60;;;;;;;;;;5064693;28;20227;-65
2023/10/30 07:12:22;;;;;;;12.02;11.52;;;;;;;;;;5066413;28;20112;-65
2023/10/30 07:14:48;;;;;;;11.73;11.23;;;;;;;;;;5069018;28;20153;-63
2023/10/30 07:17:13;;;;;;;12.10;11.60;;;;;;;;;;5060998;28;20020;-63
2023/10/30 07:19:39;;;;;;;12.20;11.70;;;;;;;;;;5060376;28;20078;-65
2023/10/30 07:22:04;;;;;;;12.18;11.68;;;;;;;;;;5061908;28;20082;-63
2023/10/30 07:24:30;;;;;;;11.90;11.40;;;;;;;;;;5059732;28;20470;-64
2023/10/30 07:26:57;;;;;;;11.82;11.32;;;;;;;;;;5077360;28;20107;-64
2023/10/30 07:29:23;;;;;;;11.93;11.43;;;;;;;;;;5065385;28;20021;-63
2023/10/30 07:31:48;;;;;;;12.00;11.50;;;;;;;;;;5065241;28;20035;-64
2023/10/30 07:34:14;;;;;;;11.95;11.45;;;;;;;;;;5068886;28;20016;-62
2023/10/30 07:36:40;;;;;;;11.60;11.10;;;;;;;;;;5068582;28;20028;-61
2023/10/30 07:39:07;;;;;;;12.07;11.57;;;;;;;;;;5067336;28;20013;-63
2023/10/30 07:41:33;;;;;;;12.25;11.75;;;;;;;;;;5062646;28;20040;-64
2023/10/30 07:43:58;;;;;;;12.02;11.52;;;;;;;;;;5066150;28;20063;-63
2023/10/30 07:46:24;;;;;;;11.98;11.48;;;;;;;;;;5066800;28;20021;-64
2023/10/30 07:48:49;;;;;;;12.18;11.68;;;;;;;;;;5062105;28;20474;-64
2023/10/30 07:51:14;;;;;;;11.98;11.48;;;;;;;;;;5069122;28;20525;-64
2023/10/30 07:53:39;;;;;;;12.45;11.88;;;;;;;;;;5069485;28;20055;-63
2023/10/30 07:56:05;;;;;;;12.27;11.77;;;;;;;;;;5066986;28;20119;-64
2023/10/30 07:58:31;;;;;;;12.20;11.70;;;;;;;;;;5063422;28;20017;-65
2023/10/30 08:00:57;;;;;;;12.27;11.77;;;;;;;;;;5068325;28;20078;-64
2023/10/30 08:03:23;;;;;;;12.27;11.77;;;;;;;;;;5067429;28;20028;-64
2023/10/30 08:05:48;;;;;;;12.07;11.57;;;;;;;;;;5060233;28;20060;-63
2023/10/30 08:08:17;;;;;;;12.30;11.80;;;;;;;;;;5060018;28;20031;-64
2023/10/30 08:10:43;;;;;;;12.05;11.55;;;;;;;;;;5066109;28;20024;-64
2023/10/30 08:13:08;;;;;;;12.07;11.57;;;;;;;;;;5022133;28;1278842;-65
2023/10/30 08:15:34;;;;;;;11.97;11.47;;;;;;;;;;5067518;28;20058;-61
2023/10/30 08:17:59;;;;;;;12.02;11.52;;;;;;;;;;5059223;28;20311;-63
2023/10/30 08:20:24;;;;;;;12.13;11.63;;;;;;;;;;5065948;28;20025;-65
2023/10/30 08:22:50;;;;;;;12.07;11.57;;;;;;;;;;5071344;28;20036;-64
2023/10/30 08:25:15;;;;;;;12.10;11.60;;;;;;;;;;5068643;28;20020;-64
2023/10/30 08:27:41;;;;;;;11.93;11.43;;;;;;;;;;5071706;28;20390;-62
2023/10/30 08:30:06;;;;;;;12.20;11.70;;;;;;;;;;5066488;28;20043;-63
2023/10/30 08:32:32;;;;;;;11.88;11.38;;;;;;;;;;5074031;28;20021;-63
2023/10/30 08:35:01;;;;;;;12.00;11.50;;;;;;;;;;5069065;28;20083;-64
2023/10/30 08:37:26;;;;;;;12.25;11.75;;;;;;;;;;5069799;28;20058;-64
2023/10/30 08:39:52;;;;;;;12.02;11.52;;;;;;;;;;5065881;28;20040;-64
2023/10/30 08:42:17;;;;;;;11.90;11.40;;;;;;;;;;5070205;28;20564;-64
2023/10/30 08:44:42;;;;;;;12.10;11.60;;;;;;;;;;5071968;28;20548;-64
2023/10/30 08:47:08;;;;;;;12.00;11.50;;;;;;;;;;5070831;28;20028;-63
2023/10/30 08:49:33;;;;;;;11.97;11.47;;;;;;;;;;5069286;28;20066;-65
2023/10/30 08:51:58;;;;;;;12.00;11.50;;;;;;;;;;5061157;28;20250;-64
2023/10/30 08:54:24;;;;;;;11.87;11.37;;;;;;;;;;5067262;28;20816;-63
2023/10/30 08:56:49;;;;;;;11.63;11.13;;;;;;;;;;5071506;28;20239;-65
2023/10/30 08:59:14;;;;;;;12.10;11.60;;;;;;;;;;5067594;28;20282;-65
2023/10/30 09:01:40;;;;;;;12.07;11.57;;;;;;;;;;5069926;28;20095;-65
2023/10/30 09:04:06;;;;;;;12.05;11.55;;;;;;;;;;5072444;28;20431;-64
2023/10/30 09:06:32;;;;;;;11.93;11.43;;;;;;;;;;5065604;28;20108;-64
2023/10/30 09:08:57;;;;;;;11.90;11.40;;;;;;;;;;5073230;28;20496;-65
2023/10/30 09:11:23;;;;;;;12.07;11.57;;;;;;;;;;5064041;28;20029;-64
2023/10/30 09:13:49;;;;;;;11.77;11.27;;;;;;;;;;5076818;28;20079;-63
2023/10/30 09:16:14;;;;;;;11.80;11.30;;;;;;;;;;5084546;28;20462;-66
2023/10/30 09:18:39;;;;;;;11.98;11.48;;;;;;;;;;5070285;28;20024;-64
2023/10/30 09:21:05;;;;;;;11.82;11.32;;;;;;;;;;5068172;28;20020;-63
2023/10/30 09:23:30;;;;;;;11.75;11.25;;;;;;;;;;5071752;28;20025;-62
2023/10/30 09:25:55;;;;;;;11.80;11.30;;;;;;;;;;5073248;28;20481;-64
2023/10/30 09:28:21;;;;;;;11.68;11.18;;;;;;;;;;5076640;28;20034;-62
2023/10/30 09:30:46;;;;;;;11.88;11.38;;;;;;;;;;5073183;28;20013;-64
2023/10/30 09:33:12;;;;;;;11.88;11.38;;;;;;;;;;5071387;28;20433;-64
2023/10/30 09:35:38;;;;;;;12.13;11.63;;;;;;;;;;5072413;28;20529;-63
2023/10/30 09:38:04;;;;;;;12.00;11.50;;;;;;;;;;5064167;28;20052;-63
2023/10/30 09:40:29;;;;;;;11.73;11.23;;;;;;;;;;5072387;28;20055;-64
2023/10/30 09:42:55;;;;;;;12.00;11.50;;;;;;;;;;5070404;28;20396;-64
2023/10/30 09:45:24;;;;;;;12.13;11.63;;;;;;;;;;5058449;28;20123;-64
2023/10/30 09:47:54;;;;;;;12.45;11.88;;;;;;;;;;5071998;28;20056;-64
2023/10/30 09:50:20;;;;;;;12.48;11.88;;;;;;;;;;5074610;28;20421;-64
2023/10/30 09:52:50;;;;;;;12.45;11.85;;;;;;;;;;5074319;28;20107;-64
2023/10/30 09:55:17;;;;;;;12.00;11.50;;;;;;;;;;5068109;28;20021;-63
2023/10/30 09:57:43;;;;;;;12.13;11.63;;;;;;;;;;5073227;28;20047;-63
2023/10/30 10:00:09;;;;;;;12.00;11.50;;;;;;;;;;5069575;28;20354;-64
2023/10/30 10:02:34;;;;;;;11.68;11.18;;;;;;;;;;5072192;28;20021;-63
2023/10/30 10:05:00;;;;;;;12.05;11.55;;;;;;;;;;5061351;28;20029;-65
2023/10/30 10:07:26;;;;;;;11.90;11.40;;;;;;;;;;5069366;28;20032;-63
2023/10/30 10:09:57;;;;;;;12.20;11.70;;;;;;;;;;5071640;28;20525;-63
2023/10/30 10:12:22;;;;;;;11.77;11.27;;;;;;;;;;5068363;28;20029;-63
2023/10/30 10:14:48;;;;;;;11.70;11.20;;;;;;;;;;5069140;28;20046;-65
2023/10/30 10:17:13;;;;;;;11.70;11.20;;;;;;;;;;5061252;28;20013;-64
2023/10/30 10:19:44;;;;;;;11.70;11.20;;;;;;;;;;5064048;28;20028;-64
2023/10/30 10:22:10;;;;;;;12.18;11.68;;;;;;;;;;5071966;28;20028;-64
2023/10/30 10:24:36;;;;;;;11.80;11.30;;;;;;;;;;5069943;28;20358;-64
2023/10/30 10:27:04;;;;;;;12.20;11.70;;;;;;;;;;5076346;28;20082;-62
2023/10/30 10:29:30;;;;;;;11.90;11.40;;;;;;;;;;5076973;28;20190;-63
2023/10/30 10:31:56;;;;;;;11.55;11.05;;;;;;;;;;5082117;28;20031;-63
2023/10/30 10:34:21;;;;;;;12.80;12.20;;;;;;;;;;5069303;28;20078;-64
2023/10/30 10:36:46;;;;;;;11.63;11.13;;;;;;;;;;5071470;28;20484;-63
2023/10/30 10:39:12;;;;;;;12.35;11.80;;;;;;;;;;5071346;28;20020;-64
2023/10/30 10:41:39;;;;;;;11.82;11.32;;;;;;;;;;5071567;28;20025;-64
2023/10/30 10:44:06;;;;;;;11.75;11.25;;;;;;;;;;5070882;28;20066;-64
2023/10/30 10:46:31;;;;;;;11.75;11.25;;;;;;;;;;5068861;28;20032;-63
2023/10/30 10:48:57;;;;;;;12.23;11.63;;;;;;;;;;5071704;28;20040;-63
2023/10/30 10:51:33;;;;;;;11.98;11.48;;;;;;;;;;5069617;28;20074;-64
2023/10/30 10:54:03;;;;;;;11.60;11.10;;;;;;;;;;5067188;28;20111;-63
2023/10/30 10:56:29;;;;;;;11.48;10.98;;;;;;;;;;5074652;28;20065;-64
2023/10/30 10:59:00;;;;;;;11.93;11.43;;;;;;;;;;5072755;28;20009;-64
2023/10/30 11:01:28;;;;;;;11.57;11.07;;;;;;;;;;5073180;28;20016;-64
2023/10/30 11:03:53;;;;;;;11.68;11.18;;;;;;;;;;5070681;28;20102;-64
2023/10/30 11:06:21;;;;;;;12.05;11.55;;;;;;;;;;5072834;28;20028;-65
2023/10/30 11:08:59;;;;;;;12.02;11.52;;;;;;;;;;5062927;28;20479;-64
2023/10/30 11:11:30;;;;;;;11.80;11.30;;;;;;;;;;5070889;28;20477;-65
2023/10/30 11:13:58;;;;;;;11.63;11.13;;;;;;;;;;5067168;28;20079;-63
2023/10/30 11:16:27;;;;;;;11.57;11.07;;;;;;;;;;5068180;28;20476;-66
2023/10/30 11:18:57;;;;;;;11.57;11.07;;;;;;;;;;5070962;28;20089;-64
2023/10/30 11:21:24;;;;;;;11.80;11.30;;;;;;;;;;5063943;28;20112;-64
2023/10/30 11:23:56;;;;;;;11.63;11.13;;;;;;;;;;5069680;28;20428;-63
2023/10/30 11:26:36;;;;;;;11.82;11.32;;;;;;;;;;5062545;28;20056;-63
2023/10/30 11:29:03;;;;;;;11.88;11.38;;;;;;;;;;5064434;28;20048;-64
2023/10/30 11:31:29;;;;;;;12.00;11.50;;;;;;;;;;5063949;28;20490;-63
2023/10/30 11:34:11;;;;;;;11.95;11.45;;;;;;;;;;5064274;28;20032;-63
2023/10/30 11:36:37;;;;;;;11.90;11.40;;;;;;;;;;5069491;28;20401;-63
2023/10/30 11:39:03;;;;;;;12.13;11.63;;;;;;;;;;5069689;28;20027;-63
2023/10/30 11:41:28;;;;;;;12.10;11.60;;;;;;;;;;5069027;28;20035;-64
2023/10/30 11:44:14;;;;;;;11.80;11.30;;;;;;;;;;5071206;28;20456;-64
2023/10/30 11:46:41;;;;;;;11.45;10.95;;;;;;;;;;5069860;28;20447;-65
2023/10/30 11:49:17;;;;;;;11.40;10.90;;;;;;;;;;5065331;28;20078;-65
2023/10/30 11:51:44;;;;;;;12.13;11.63;;;;;;;;;;5065941;28;20025;-65
2023/10/30 11:54:10;;;;;;;11.40;10.90;;;;;;;;;;5068019;28;20077;-64
2023/10/30 11:56:35;;;;;;;12.20;11.70;;;;;;;;;;5063078;28;20021;-64
2023/10/30 11:59:02;;;;;;;11.60;11.10;;;;;;;;;;5069795;28;20035;-62
2023/10/30 12:01:30;;;;;;;12.00;11.50;;;;;;;;;;5066114;28;20038;-63
2023/10/30 12:03:56;;;;;;;12.95;12.35;;;;;;;;;;5067732;28;20047;-64
2023/10/30 12:06:24;;;;;;;11.93;11.43;;;;;;;;;;5062202;28;20052;-64
2023/10/30 12:08:50;;;;;;;11.80;11.30;;;;;;;;;;5068473;28;20560;-64
2023/10/30 12:11:15;;;;;;;11.52;11.02;;;;;;;;;;5061520;28;20067;-65
2023/10/30 12:13:42;;;;;;;11.77;11.27;;;;;;;;;;5071381;28;20064;-64
2023/10/30 12:16:07;;;;;;;12.30;11.80;;;;;;;;;;5064928;28;20028;-64
2023/10/30 12:18:34;;;;;;;12.23;11.73;;;;;;;;;;5068421;28;20032;-63
2023/10/30 12:21:00;;;;;;;11.70;11.20;;;;;;;;;;5069060;28;20024;-63
2023/10/30 12:23:25;;;;;;;11.90;11.40;;;;;;;;;;5067866;28;20057;-63
2023/10/30 12:25:52;;;;;;;11.95;11.45;;;;;;;;;;5063974;28;20021;-63
2023/10/30 12:28:17;;;;;;;11.95;11.45;;;;;;;;;;5069499;28;20583;-65
2023/10/30 12:30:43;;;;;;;12.25;11.75;;;;;;;;;;5067981;28;20029;-62
2023/10/30 12:33:13;;;;;;;12.20;11.70;;;;;;;;;;5068689;28;20025;-64
2023/10/30 12:35:40;;;;;;;12.35;11.77;;;;;;;;;;5067830;28;20562;-63
2023/10/30 12:38:12;;;;;;;11.63;11.13;;;;;;;;;;5071639;28;20489;-64
2023/10/30 12:40:38;;;;;;;11.48;10.98;;;;;;;;;;5067750;28;20013;-63
2023/10/30 12:43:03;;;;;;;11.43;10.93;;;;;;;;;;5080637;28;20024;-64
2023/10/30 12:45:29;;;;;;;11.80;11.30;;;;;;;;;;5071540;28;20028;-63
2023/10/30 12:47:56;;;;;;;11.60;11.10;;;;;;;;;;5072295;28;20031;-64
2023/10/30 12:50:23;;;;;;;11.80;11.30;;;;;;;;;;5071406;28;20055;-65
2023/10/30 12:52:48;;;;;;;11.70;11.20;;;;;;;;;;5078217;28;20152;-64
2023/10/30 12:55:13;;;;;;;11.50;11.00;;;;;;;;;;5074284;28;20121;-63
2023/10/30 12:57:42;;;;;;;11.95;11.45;;;;;;;;;;5072492;28;20017;-65
2023/10/30 13:00:08;;;;;;;11.55;11.05;;;;;;;;;;5074359;28;20012;-64
2023/10/30 13:02:34;;;;;;;11.65;11.15;;;;;;;;;;5072028;28;20025;-64
2023/10/30 13:04:59;;;;;;;11.52;11.02;;;;;;;;;;5067447;28;20031;-64
2023/10/30 13:07:25;;;;;;;11.57;11.07;;;;;;;;;;5070796;28;20211;-64
2023/10/30 13:09:50;;;;;;;11.10;10.60;;;;;;;;;;5068510;28;20056;-64
2023/10/30 13:12:15;;;;;;;11.57;11.07;;;;;;;;;;5076784;28;20118;-64
2023/10/30 13:14:41;;;;;;;11.90;11.40;;;;;;;;;;5069237;28;20055;-64
2023/10/30 13:17:06;;;;;;;11.75;11.25;;;;;;;;;;5071653;28;20036;-64
2023/10/30 13:19:32;;;;;;;11.80;11.30;;;;;;;;;;5067834;28;20082;-64
2023/10/30 13:21:59;;;;;;;11.80;11.30;;;;;;;;;;5071952;28;20028;-64
2023/10/30 13:24:24;;;;;;;11.73;11.23;;;;;;;;;;5071905;28;20095;-64
2023/10/30 13:26:50;;;;;;;11.57;11.07;;;;;;;;;;5071334;28;20532;-64
2023/10/30 13:29:15;;;;;;;11.88;11.38;;;;;;;;;;5068085;28;20479;-63
2023/10/30 13:31:40;;;;;;;11.88;11.38;;;;;;;;;;5066424;28;20016;-64
2023/10/30 13:34:06;;;;;;;11.70;11.20;;;;;;;;;;5073486;28;20078;-63
2023/10/30 13:36:31;;;;;;;12.00;11.50;;;;;;;;;;5073131;28;20044;-64
2023/10/30 13:38:56;;;;;;;11.60;11.10;;;;;;;;;;5066460;28;20092;-63
2023/10/30 13:41:22;;;;;;;11.80;11.30;;;;;;;;;;5070259;28;20021;-63
2023/10/30 13:43:48;;;;;;;12.00;11.50;;;;;;;;;;5069063;28;20024;-64
2023/10/30 13:46:13;;;;;;;11.65;11.15;;;;;;;;;;5072009;28;20031;-62
2023/10/30 13:48:38;;;;;;;11.82;11.32;;;;;;;;;;5063730;28;20536;-62
2023/10/30 13:51:04;;;;;;;11.60;11.10;;;;;;;;;;5067008;28;20040;-63
2023/10/30 13:53:29;;;;;;;12.18;11.68;;;;;;;;;;5070662;28;20495;-64
2023/10/30 13:55:55;;;;;;;11.80;11.30;;;;;;;;;;5068379;28;20019;-64
2023/10/30 13:58:20;;;;;;;11.63;11.13;;;;;;;;;;5073119;28;20032;-64
2023/10/30 14:00:45;;;;;;;11.43;10.93;;;;;;;;;;5065864;28;20042;-63
2023/10/30 14:03:11;;;;;;;12.00;11.50;;;;;;;;;;5071458;28;20017;-63
2023/10/30 14:05:36;;;;;;;11.63;11.13;;;;;;;;;;5070308;28;20091;-64
2023/10/30 14:08:01;;;;;;;11.60;11.10;;;;;;;;;;5067226;28;20031;-64
2023/10/30 14:10:27;;;;;;;11.75;11.25;;;;;;;;;;5067965;28;20015;-63